sensor_id;sensor_type;location;lat;lon;timestamp;pressure;altitude;pressure_sealevel;temperature;humidity
8101;BME280;4093;53.470;9.832;2023-04-07T00:01:04;101676.06;;;7.51;60.19
8101;BME280;4093;53.470;9.832;2023-04-07T00:03:32;101668.88;;;7.18;61.24
8101;BME280;4093;53.470;9.832;2023-04-07T00:06:00;101671.25;;;7.04;62.05
8101;BME280;4093;53.470;9.832;2023-04-07T00:08:27;101677.69;;;7.40;61.45
8101;BME280;4093;53.470;9.832;2023-04-07T00:10:55;101677.66;;;7.37;61.15
8101;BME280;4093;53.470;9.832;2023-04-07T00:13:23;101676.72;;;7.32;61.02
8101;BME280;4093;53.470;9.832;2023-04-07T00:15:53;101685.38;;;7.37;61.29
8101;BME280;4093;53.470;9.832;2023-04-07T00:18:20;101677.63;;;7.35;60.92
8101;BME280;4093;53.470;9.832;2023-04-07T00:20:48;101675.88;;;7.33;61.87
8101;BME280;4093;53.470;9.832;2023-04-07T00:23:16;101672.94;;;6.99;62.65
8101;BME280;4093;53.470;9.832;2023-04-07T00:25:43;101674.09;;;7.24;62.02
8101;BME280;4093;53.470;9.832;2023-04-07T00:28:11;101667.00;;;7.06;62.27
8101;BME280;4093;53.470;9.832;2023-04-07T00:30:39;101654.53;;;6.68;63.10
8101;BME280;4093;53.470;9.832;2023-04-07T00:33:08;101660.53;;;6.69;62.73
8101;BME280;4093;53.470;9.832;2023-04-07T00:35:36;101671.47;;;7.23;62.53
8101;BME280;4093;53.470;9.832;2023-04-07T00:38:03;101668.47;;;6.86;62.45
8101;BME280;4093;53.470;9.832;2023-04-07T00:40:31;101667.69;;;6.90;62.65
8101;BME280;4093;53.470;9.832;2023-04-07T00:42:59;101662.38;;;6.78;62.69
8101;BME280;4093;53.470;9.832;2023-04-07T00:45:26;101677.06;;;6.86;62.79
8101;BME280;4093;53.470;9.832;2023-04-07T00:47:55;101681.44;;;6.93;63.06
8101;BME280;4093;53.470;9.832;2023-04-07T00:50:25;101670.38;;;6.99;62.70
8101;BME280;4093;53.470;9.832;2023-04-07T00:52:53;101656.84;;;6.50;63.94
8101;BME280;4093;53.470;9.832;2023-04-07T00:55:22;101669.75;;;6.55;64.62
8101;BME280;4093;53.470;9.832;2023-04-07T00:57:50;101660.47;;;6.63;63.56
8101;BME280;4093;53.470;9.832;2023-04-07T01:00:18;101671.75;;;6.74;64.12
8101;BME280;4093;53.470;9.832;2023-04-07T01:02:52;101671.38;;;6.48;64.71
8101;BME280;4093;53.470;9.832;2023-04-07T01:05:31;101674.53;;;6.91;63.52
8101;BME280;4093;53.470;9.832;2023-04-07T01:08:08;101664.88;;;6.71;64.11
8101;BME280;4093;53.470;9.832;2023-04-07T01:10:43;101673.56;;;6.83;63.92
8101;BME280;4093;53.470;9.832;2023-04-07T01:13:22;101656.22;;;6.65;63.94
8101;BME280;4093;53.470;9.832;2023-04-07T01:15:54;101649.44;;;6.71;63.99
8101;BME280;4093;53.470;9.832;2023-04-07T01:18:28;101658.47;;;6.45;65.14
8101;BME280;4093;53.470;9.832;2023-04-07T01:21:02;101655.22;;;6.57;64.74
8101;BME280;4093;53.470;9.832;2023-04-07T01:23:51;101657.03;;;6.62;64.76
8101;BME280;4093;53.470;9.832;2023-04-07T01:26:29;101648.06;;;6.34;64.85
8101;BME280;4093;53.470;9.832;2023-04-07T01:29:19;101660.97;;;6.39;65.73
8101;BME280;4093;53.470;9.832;2023-04-07T01:31:49;101668.03;;;6.54;64.99
8101;BME280;4093;53.470;9.832;2023-04-07T01:34:18;101655.72;;;6.33;65.60
8101;BME280;4093;53.470;9.832;2023-04-07T01:36:46;101661.63;;;6.25;66.33
8101;BME280;4093;53.470;9.832;2023-04-07T01:39:16;101669.03;;;6.63;65.07
8101;BME280;4093;53.470;9.832;2023-04-07T01:41:45;101658.31;;;6.33;65.66
8101;BME280;4093;53.470;9.832;2023-04-07T01:44:13;101660.78;;;6.26;65.87
8101;BME280;4093;53.470;9.832;2023-04-07T01:46:43;101668.06;;;6.57;64.88
8101;BME280;4093;53.470;9.832;2023-04-07T01:49:11;101670.56;;;6.49;65.24
8101;BME280;4093;53.470;9.832;2023-04-07T01:51:40;101634.91;;;6.11;66.34
8101;BME280;4093;53.470;9.832;2023-04-07T01:54:08;101657.72;;;5.93;66.69
8101;BME280;4093;53.470;9.832;2023-04-07T01:56:36;101674.94;;;6.00;66.73
8101;BME280;4093;53.470;9.832;2023-04-07T01:59:04;101667.91;;;5.91;67.19
8101;BME280;4093;53.470;9.832;2023-04-07T02:01:32;101663.28;;;5.72;68.05
8101;BME280;4093;53.470;9.832;2023-04-07T02:04:05;101655.31;;;5.55;68.48
8101;BME280;4093;53.470;9.832;2023-04-07T02:06:42;101673.50;;;5.69;68.04
8101;BME280;4093;53.470;9.832;2023-04-07T02:09:14;101684.78;;;5.78;67.79
8101;BME280;4093;53.470;9.832;2023-04-07T02:11:44;101684.25;;;5.95;67.66
8101;BME280;4093;53.470;9.832;2023-04-07T02:14:12;101680.66;;;5.87;68.04
8101;BME280;4093;53.470;9.832;2023-04-07T02:16:41;101675.84;;;5.55;68.58
8101;BME280;4093;53.470;9.832;2023-04-07T02:19:12;101675.78;;;5.53;68.83
8101;BME280;4093;53.470;9.832;2023-04-07T02:21:41;101668.63;;;5.36;69.17
8101;BME280;4093;53.470;9.832;2023-04-07T02:24:10;101673.28;;;5.56;68.85
8101;BME280;4093;53.470;9.832;2023-04-07T02:26:38;101668.09;;;5.53;68.59
8101;BME280;4093;53.470;9.832;2023-04-07T02:29:06;101677.63;;;5.61;68.82
8101;BME280;4093;53.470;9.832;2023-04-07T02:31:33;101677.22;;;5.38;69.44
8101;BME280;4093;53.470;9.832;2023-04-07T02:34:01;101673.22;;;5.53;68.57
8101;BME280;4093;53.470;9.832;2023-04-07T02:36:30;101676.69;;;6.02;67.20
8101;BME280;4093;53.470;9.832;2023-04-07T02:38:58;101673.91;;;5.45;69.16
8101;BME280;4093;53.470;9.832;2023-04-07T02:41:25;101672.63;;;5.21;69.30
8101;BME280;4093;53.470;9.832;2023-04-07T02:43:53;101679.63;;;5.30;69.07
8101;BME280;4093;53.470;9.832;2023-04-07T02:46:22;101685.06;;;5.47;68.78
8101;BME280;4093;53.470;9.832;2023-04-07T02:48:49;101686.28;;;5.20;69.69
8101;BME280;4093;53.470;9.832;2023-04-07T02:51:17;101683.19;;;5.38;69.17
8101;BME280;4093;53.470;9.832;2023-04-07T02:53:46;101688.09;;;5.73;67.89
8101;BME280;4093;53.470;9.832;2023-04-07T02:56:14;101676.16;;;5.28;69.13
8101;BME280;4093;53.470;9.832;2023-04-07T02:58:42;101677.94;;;5.32;68.72
8101;BME280;4093;53.470;9.832;2023-04-07T03:01:09;101682.75;;;5.15;69.16
8101;BME280;4093;53.470;9.832;2023-04-07T03:03:37;101698.44;;;5.76;67.69
8101;BME280;4093;53.470;9.832;2023-04-07T03:06:07;101692.38;;;5.71;67.55
8101;BME280;4093;53.470;9.832;2023-04-07T03:08:35;101688.38;;;5.41;67.71
8101;BME280;4093;53.470;9.832;2023-04-07T03:11:04;101687.34;;;5.30;68.66
8101;BME280;4093;53.470;9.832;2023-04-07T03:13:32;101684.66;;;5.24;68.88
8101;BME280;4093;53.470;9.832;2023-04-07T03:15:59;101675.00;;;5.12;68.89
8101;BME280;4093;53.470;9.832;2023-04-07T03:18:27;101685.00;;;5.00;68.93
8101;BME280;4093;53.470;9.832;2023-04-07T03:20:55;101698.25;;;5.21;68.72
8101;BME280;4093;53.470;9.832;2023-04-07T03:23:23;101698.59;;;5.38;68.66
8101;BME280;4093;53.470;9.832;2023-04-07T03:25:50;101691.19;;;5.09;68.82
8101;BME280;4093;53.470;9.832;2023-04-07T03:28:19;101695.31;;;5.03;69.36
8101;BME280;4093;53.470;9.832;2023-04-07T03:30:47;101705.16;;;5.24;69.17
8101;BME280;4093;53.470;9.832;2023-04-07T03:33:15;101699.47;;;4.96;69.46
8101;BME280;4093;53.470;9.832;2023-04-07T03:35:43;101705.72;;;5.10;69.15
8101;BME280;4093;53.470;9.832;2023-04-07T03:38:10;101703.97;;;5.08;69.20
8101;BME280;4093;53.470;9.832;2023-04-07T03:40:38;101710.09;;;5.15;69.36
8101;BME280;4093;53.470;9.832;2023-04-07T03:43:06;101707.09;;;4.95;69.47
8101;BME280;4093;53.470;9.832;2023-04-07T03:45:39;101708.97;;;5.02;69.33
8101;BME280;4093;53.470;9.832;2023-04-07T03:48:07;101712.06;;;5.28;68.38
8101;BME280;4093;53.470;9.832;2023-04-07T03:50:37;101703.22;;;5.14;68.74
8101;BME280;4093;53.470;9.832;2023-04-07T03:53:05;101700.41;;;4.62;70.12
8101;BME280;4093;53.470;9.832;2023-04-07T03:55:33;101712.47;;;5.07;69.78
8101;BME280;4093;53.470;9.832;2023-04-07T03:58:01;101720.94;;;5.03;69.99
8101;BME280;4093;53.470;9.832;2023-04-07T04:00:28;101711.34;;;4.93;68.84
8101;BME280;4093;53.470;9.832;2023-04-07T04:03:00;101723.97;;;4.85;69.55
8101;BME280;4093;53.470;9.832;2023-04-07T04:05:28;101710.00;;;4.71;69.40
8101;BME280;4093;53.470;9.832;2023-04-07T04:07:55;101719.75;;;4.87;69.62
8101;BME280;4093;53.470;9.832;2023-04-07T04:10:23;101723.44;;;4.98;68.71
8101;BME280;4093;53.470;9.832;2023-04-07T04:12:51;101715.94;;;4.70;69.22
8101;BME280;4093;53.470;9.832;2023-04-07T04:15:18;101716.28;;;4.83;68.98
8101;BME280;4093;53.470;9.832;2023-04-07T04:17:46;101722.06;;;4.76;68.95
8101;BME280;4093;53.470;9.832;2023-04-07T04:20:15;101737.44;;;4.76;69.66
8101;BME280;4093;53.470;9.832;2023-04-07T04:22:42;101713.50;;;4.74;69.00
8101;BME280;4093;53.470;9.832;2023-04-07T04:25:10;101740.06;;;4.78;69.41
8101;BME280;4093;53.470;9.832;2023-04-07T04:27:38;101739.63;;;4.59;70.44
8101;BME280;4093;53.470;9.832;2023-04-07T04:30:07;101735.72;;;4.75;69.51
8101;BME280;4093;53.470;9.832;2023-04-07T04:32:34;101732.44;;;4.82;68.80
8101;BME280;4093;53.470;9.832;2023-04-07T04:35:02;101748.91;;;4.92;69.03
8101;BME280;4093;53.470;9.832;2023-04-07T04:37:32;101734.84;;;4.75;69.21
8101;BME280;4093;53.470;9.832;2023-04-07T04:40:00;101744.53;;;4.86;68.90
8101;BME280;4093;53.470;9.832;2023-04-07T04:42:28;101758.22;;;4.88;68.84
8101;BME280;4093;53.470;9.832;2023-04-07T04:44:59;101756.28;;;4.78;69.43
8101;BME280;4093;53.470;9.832;2023-04-07T04:47:26;101752.28;;;4.90;68.78
8101;BME280;4093;53.470;9.832;2023-04-07T04:49:54;101748.31;;;4.66;69.18
8101;BME280;4093;53.470;9.832;2023-04-07T04:52:22;101748.94;;;4.56;69.85
8101;BME280;4093;53.470;9.832;2023-04-07T04:54:51;101756.84;;;4.67;69.55
8101;BME280;4093;53.470;9.832;2023-04-07T04:57:18;101769.41;;;4.56;69.49
8101;BME280;4093;53.470;9.832;2023-04-07T04:59:46;101766.25;;;4.66;69.25
8101;BME280;4093;53.470;9.832;2023-04-07T05:02:14;101775.69;;;4.69;69.83
8101;BME280;4093;53.470;9.832;2023-04-07T05:04:41;101766.16;;;5.01;68.51
8101;BME280;4093;53.470;9.832;2023-04-07T05:07:21;101776.50;;;5.04;68.90
8101;BME280;4093;53.470;9.832;2023-04-07T05:09:50;101713.50;;;4.74;68.06
8101;BME280;4093;53.470;9.832;2023-04-07T05:12:18;101761.69;;;4.91;68.82
8101;BME280;4093;53.470;9.832;2023-04-07T05:14:45;101770.44;;;4.62;69.54
8101;BME280;4093;53.470;9.832;2023-04-07T05:17:13;101783.22;;;4.61;70.06
8101;BME280;4093;53.470;9.832;2023-04-07T05:19:41;101771.78;;;4.84;69.56
8101;BME280;4093;53.470;9.832;2023-04-07T05:22:09;101776.72;;;4.40;70.24
8101;BME280;4093;53.470;9.832;2023-04-07T05:24:37;101798.88;;;5.11;69.06
8101;BME280;4093;53.470;9.832;2023-04-07T05:27:06;101789.78;;;4.87;69.57
8101;BME280;4093;53.470;9.832;2023-04-07T05:29:33;101778.84;;;4.95;68.92
8101;BME280;4093;53.470;9.832;2023-04-07T05:32:01;101786.81;;;5.07;68.22
8101;BME280;4093;53.470;9.832;2023-04-07T05:34:29;101790.22;;;5.07;68.30
8101;BME280;4093;53.470;9.832;2023-04-07T05:36:57;101796.09;;;5.41;67.46
8101;BME280;4093;53.470;9.832;2023-04-07T05:39:24;101790.38;;;5.54;66.96
8101;BME280;4093;53.470;9.832;2023-04-07T05:41:52;101794.44;;;5.87;65.46
8101;BME280;4093;53.470;9.832;2023-04-07T05:44:21;101799.28;;;5.72;65.89
8101;BME280;4093;53.470;9.832;2023-04-07T05:46:49;101790.97;;;6.85;62.59
8101;BME280;4093;53.470;9.832;2023-04-07T05:49:16;101789.84;;;6.66;62.00
8101;BME280;4093;53.470;9.832;2023-04-07T05:51:46;101802.28;;;6.42;62.74
8101;BME280;4093;53.470;9.832;2023-04-07T05:54:14;101794.94;;;6.13;64.17
8101;BME280;4093;53.470;9.832;2023-04-07T05:56:42;101809.94;;;6.92;61.72
8101;BME280;4093;53.470;9.832;2023-04-07T05:59:10;101805.41;;;7.35;60.66
8101;BME280;4093;53.470;9.832;2023-04-07T06:01:39;101800.81;;;8.72;56.93
8101;BME280;4093;53.470;9.832;2023-04-07T06:04:06;101806.63;;;7.66;58.32
8101;BME280;4093;53.470;9.832;2023-04-07T06:06:34;101795.38;;;7.56;58.49
8101;BME280;4093;53.470;9.832;2023-04-07T06:09:02;101800.63;;;7.67;58.33
8101;BME280;4093;53.470;9.832;2023-04-07T06:11:32;101811.75;;;8.42;56.30
8101;BME280;4093;53.470;9.832;2023-04-07T06:14:00;101815.41;;;8.69;55.01
8101;BME280;4093;53.470;9.832;2023-04-07T06:16:27;101819.06;;;9.01;54.84
8101;BME280;4093;53.470;9.832;2023-04-07T06:18:56;101799.75;;;10.95;50.52
8101;BME280;4093;53.470;9.832;2023-04-07T06:21:24;101800.22;;;11.94;48.21
8101;BME280;4093;53.470;9.832;2023-04-07T06:23:52;101803.91;;;9.63;51.78
8101;BME280;4093;53.470;9.832;2023-04-07T06:26:20;101797.06;;;9.86;51.15
8101;BME280;4093;53.470;9.832;2023-04-07T06:28:48;101801.41;;;11.19;48.83
8101;BME280;4093;53.470;9.832;2023-04-07T06:31:16;101810.09;;;10.91;49.81
8101;BME280;4093;53.470;9.832;2023-04-07T06:33:44;101811.75;;;10.01;51.19
8101;BME280;4093;53.470;9.832;2023-04-07T06:36:14;101810.97;;;10.71;49.99
8101;BME280;4093;53.470;9.832;2023-04-07T06:38:42;101816.97;;;11.02;50.13
8101;BME280;4093;53.470;9.832;2023-04-07T06:41:09;101811.84;;;10.42;49.84
8101;BME280;4093;53.470;9.832;2023-04-07T06:43:42;101830.66;;;11.46;49.22
8101;BME280;4093;53.470;9.832;2023-04-07T06:46:10;101828.66;;;12.09;47.85
8101;BME280;4093;53.470;9.832;2023-04-07T06:48:37;101812.28;;;12.02;45.93
8101;BME280;4093;53.470;9.832;2023-04-07T06:51:05;101833.38;;;10.71;49.55
8101;BME280;4093;53.470;9.832;2023-04-07T06:53:34;101832.38;;;9.89;50.86
8101;BME280;4093;53.470;9.832;2023-04-07T06:56:03;101827.78;;;13.16;45.57
8101;BME280;4093;53.470;9.832;2023-04-07T06:58:31;101816.44;;;12.25;45.28
8101;BME280;4093;53.470;9.832;2023-04-07T07:00:59;101840.19;;;12.88;44.95
8101;BME280;4093;53.470;9.832;2023-04-07T07:03:27;101826.53;;;12.66;45.30
8101;BME280;4093;53.470;9.832;2023-04-07T07:05:55;101821.91;;;13.76;42.36
8101;BME280;4093;53.470;9.832;2023-04-07T07:08:23;101822.13;;;14.23;41.46
8101;BME280;4093;53.470;9.832;2023-04-07T07:10:53;101839.66;;;12.48;45.13
8101;BME280;4093;53.470;9.832;2023-04-07T07:13:23;101841.72;;;13.08;44.49
8101;BME280;4093;53.470;9.832;2023-04-07T07:15:51;101834.66;;;13.93;43.03
8101;BME280;4093;53.470;9.832;2023-04-07T07:18:19;101818.34;;;15.40;40.23
8101;BME280;4093;53.470;9.832;2023-04-07T07:20:47;101822.97;;;16.09;38.95
8101;BME280;4093;53.470;9.832;2023-04-07T07:23:16;101827.03;;;16.57;37.84
8101;BME280;4093;53.470;9.832;2023-04-07T07:25:43;101825.91;;;15.09;40.14
8101;BME280;4093;53.470;9.832;2023-04-07T07:28:12;101834.25;;;13.60;42.35
8101;BME280;4093;53.470;9.832;2023-04-07T07:30:40;101851.22;;;11.93;45.83
8101;BME280;4093;53.470;9.832;2023-04-07T07:33:08;101841.50;;;14.00;42.46
8101;BME280;4093;53.470;9.832;2023-04-07T07:35:36;101839.50;;;12.66;43.40
8101;BME280;4093;53.470;9.832;2023-04-07T07:38:04;101843.88;;;13.49;43.28
8101;BME280;4093;53.470;9.832;2023-04-07T07:40:32;101847.41;;;13.43;43.80
8101;BME280;4093;53.470;9.832;2023-04-07T07:43:00;101834.47;;;15.57;39.02
8101;BME280;4093;53.470;9.832;2023-04-07T07:45:29;101845.25;;;14.95;40.72
8101;BME280;4093;53.470;9.832;2023-04-07T07:47:56;101853.81;;;15.92;39.35
8101;BME280;4093;53.470;9.832;2023-04-07T07:50:24;101843.72;;;16.87;36.87
8101;BME280;4093;53.470;9.832;2023-04-07T07:52:52;101845.41;;;15.78;38.39
8101;BME280;4093;53.470;9.832;2023-04-07T07:55:20;101855.34;;;13.33;42.08
8101;BME280;4093;53.470;9.832;2023-04-07T07:57:47;101877.69;;;12.46;44.28
8101;BME280;4093;53.470;9.832;2023-04-07T08:00:15;101855.97;;;14.77;40.29
8101;BME280;4093;53.470;9.832;2023-04-07T08:02:44;101862.03;;;13.54;42.06
8101;BME280;4093;53.470;9.832;2023-04-07T08:05:12;101881.34;;;12.14;44.20
8101;BME280;4093;53.470;9.832;2023-04-07T08:07:40;101881.06;;;12.60;43.06
8101;BME280;4093;53.470;9.832;2023-04-07T08:10:08;101882.75;;;12.64;43.40
8101;BME280;4093;53.470;9.832;2023-04-07T08:12:36;101884.41;;;12.71;43.60
8101;BME280;4093;53.470;9.832;2023-04-07T08:15:04;101877.81;;;14.08;41.30
8101;BME280;4093;53.470;9.832;2023-04-07T08:17:33;101861.47;;;16.37;37.56
8101;BME280;4093;53.470;9.832;2023-04-07T08:20:02;101858.78;;;16.03;36.99
8101;BME280;4093;53.470;9.832;2023-04-07T08:22:30;101868.59;;;14.46;39.82
8101;BME280;4093;53.470;9.832;2023-04-07T08:24:58;101880.50;;;13.28;42.00
8101;BME280;4093;53.470;9.832;2023-04-07T08:27:26;101876.63;;;14.30;40.50
8101;BME280;4093;53.470;9.832;2023-04-07T08:30:01;101877.69;;;14.16;40.48
8101;BME280;4093;53.470;9.832;2023-04-07T08:32:36;101876.16;;;14.02;39.51
8101;BME280;4093;53.470;9.832;2023-04-07T08:35:06;101875.22;;;14.68;39.83
8101;BME280;4093;53.470;9.832;2023-04-07T08:37:34;101885.25;;;12.77;42.47
8101;BME280;4093;53.470;9.832;2023-04-07T08:40:02;101879.75;;;13.92;40.65
8101;BME280;4093;53.470;9.832;2023-04-07T08:42:32;101880.19;;;14.23;41.27
8101;BME280;4093;53.470;9.832;2023-04-07T08:45:02;101897.09;;;13.90;42.27
8101;BME280;4093;53.470;9.832;2023-04-07T08:47:32;101884.31;;;13.73;41.39
8101;BME280;4093;53.470;9.832;2023-04-07T08:50:02;101874.19;;;14.77;40.23
8101;BME280;4093;53.470;9.832;2023-04-07T08:52:39;101875.41;;;15.54;40.30
8101;BME280;4093;53.470;9.832;2023-04-07T08:55:08;101888.03;;;15.77;39.52
8101;BME280;4093;53.470;9.832;2023-04-07T08:57:36;101856.19;;;14.63;39.32
8101;BME280;4093;53.470;9.832;2023-04-07T09:00:05;101887.19;;;15.30;40.05
8101;BME280;4093;53.470;9.832;2023-04-07T09:02:34;101886.69;;;13.92;40.77
8101;BME280;4093;53.470;9.832;2023-04-07T09:05:03;101900.13;;;13.55;41.28
8101;BME280;4093;53.470;9.832;2023-04-07T09:07:34;101891.06;;;14.54;40.48
8101;BME280;4093;53.470;9.832;2023-04-07T09:10:02;101893.53;;;15.13;39.39
8101;BME280;4093;53.470;9.832;2023-04-07T09:12:30;101886.75;;;13.87;40.36
8101;BME280;4093;53.470;9.832;2023-04-07T09:14:58;101905.38;;;13.50;41.38
8101;BME280;4093;53.470;9.832;2023-04-07T09:17:27;101913.09;;;12.58;42.17
8101;BME280;4093;53.470;9.832;2023-04-07T09:19:55;101907.81;;;12.65;42.87
8101;BME280;4093;53.470;9.832;2023-04-07T09:22:38;101899.63;;;13.14;41.95
8101;BME280;4093;53.470;9.832;2023-04-07T09:25:14;101905.25;;;12.62;43.80
8101;BME280;4093;53.470;9.832;2023-04-07T09:27:56;101912.47;;;12.14;42.57
8101;BME280;4093;53.470;9.832;2023-04-07T09:30:26;101885.69;;;12.12;43.91
8101;BME280;4093;53.470;9.832;2023-04-07T09:32:54;101898.69;;;12.03;43.70
8101;BME280;4093;53.470;9.832;2023-04-07T09:35:22;101903.78;;;12.21;43.90
8101;BME280;4093;53.470;9.832;2023-04-07T09:38:02;101891.22;;;12.88;43.06
8101;BME280;4093;53.470;9.832;2023-04-07T09:40:30;101901.72;;;12.76;44.41
8101;BME280;4093;53.470;9.832;2023-04-07T09:42:58;101898.47;;;12.47;44.28
8101;BME280;4093;53.470;9.832;2023-04-07T09:45:26;101896.59;;;12.66;44.70
8101;BME280;4093;53.470;9.832;2023-04-07T09:48:04;101889.75;;;13.53;42.81
8101;BME280;4093;53.470;9.832;2023-04-07T09:50:34;101899.84;;;13.78;42.80
8101;BME280;4093;53.470;9.832;2023-04-07T09:53:03;101887.47;;;13.19;43.23
8101;BME280;4093;53.470;9.832;2023-04-07T09:55:31;101905.56;;;12.13;44.94
8101;BME280;4093;53.470;9.832;2023-04-07T09:58:01;101896.16;;;13.15;43.21
8101;BME280;4093;53.470;9.832;2023-04-07T10:00:31;101901.81;;;13.60;42.50
8101;BME280;4093;53.470;9.832;2023-04-07T10:03:00;101892.00;;;13.01;42.63
8101;BME280;4093;53.470;9.832;2023-04-07T10:05:30;101888.25;;;12.20;42.30
8101;BME280;4093;53.470;9.832;2023-04-07T10:07:59;101899.53;;;12.05;43.03
8101;BME280;4093;53.470;9.832;2023-04-07T10:10:30;101893.00;;;12.83;44.11
8101;BME280;4093;53.470;9.832;2023-04-07T10:12:58;101900.97;;;12.58;42.62
8101;BME280;4093;53.470;9.832;2023-04-07T10:15:26;101902.25;;;13.13;42.76
8101;BME280;4093;53.470;9.832;2023-04-07T10:17:54;101898.69;;;13.25;41.82
8101;BME280;4093;53.470;9.832;2023-04-07T10:20:22;101860.13;;;12.82;41.51
8101;BME280;4093;53.470;9.832;2023-04-07T10:22:51;101902.06;;;12.19;43.02
8101;BME280;4093;53.470;9.832;2023-04-07T10:25:21;101903.19;;;13.04;41.22
8101;BME280;4093;53.470;9.832;2023-04-07T10:27:55;101900.59;;;13.03;41.65
8101;BME280;4093;53.470;9.832;2023-04-07T10:30:28;101909.63;;;12.56;42.05
8101;BME280;4093;53.470;9.832;2023-04-07T10:32:57;101909.66;;;12.53;40.83
8101;BME280;4093;53.470;9.832;2023-04-07T10:35:25;101910.78;;;12.02;41.76
8101;BME280;4093;53.470;9.832;2023-04-07T10:38:10;101918.59;;;11.93;42.45
8101;BME280;4093;53.470;9.832;2023-04-07T10:40:40;101910.81;;;11.96;42.52
8101;BME280;4093;53.470;9.832;2023-04-07T10:43:09;101915.38;;;12.96;41.13
8101;BME280;4093;53.470;9.832;2023-04-07T10:45:56;101916.06;;;13.19;41.51
8101;BME280;4093;53.470;9.832;2023-04-07T10:48:26;101911.16;;;12.81;42.47
8101;BME280;4093;53.470;9.832;2023-04-07T10:51:15;101908.13;;;13.36;40.84
8101;BME280;4093;53.470;9.832;2023-04-07T10:54:16;101902.31;;;13.90;40.07
8101;BME280;4093;53.470;9.832;2023-04-07T10:57:09;101911.31;;;12.61;40.82
8101;BME280;4093;53.470;9.832;2023-04-07T10:59:42;101907.94;;;12.52;41.06
8101;BME280;4093;53.470;9.832;2023-04-07T11:02:34;101921.69;;;12.64;40.25
8101;BME280;4093;53.470;9.832;2023-04-07T11:05:02;101919.75;;;12.89;40.52
8101;BME280;4093;53.470;9.832;2023-04-07T11:07:44;101912.63;;;13.13;41.46
8101;BME280;4093;53.470;9.832;2023-04-07T11:10:13;101906.72;;;12.94;41.24
8101;BME280;4093;53.470;9.832;2023-04-07T11:12:42;101898.16;;;12.86;40.07
8101;BME280;4093;53.470;9.832;2023-04-07T11:15:17;101898.41;;;13.52;39.65
8101;BME280;4093;53.470;9.832;2023-04-07T11:17:46;101900.00;;;12.73;38.53
8101;BME280;4093;53.470;9.832;2023-04-07T11:20:14;101848.88;;;12.83;39.37
8101;BME280;4093;53.470;9.832;2023-04-07T11:22:41;101891.72;;;14.05;38.11
8101;BME280;4093;53.470;9.832;2023-04-07T11:25:21;101877.75;;;13.41;39.49
8101;BME280;4093;53.470;9.832;2023-04-07T11:27:53;101899.44;;;14.10;39.43
8101;BME280;4093;53.470;9.832;2023-04-07T11:30:20;101886.47;;;13.36;40.58
8101;BME280;4093;53.470;9.832;2023-04-07T11:32:50;101899.22;;;13.60;40.46
8101;BME280;4093;53.470;9.832;2023-04-07T11:35:18;101888.13;;;14.14;38.86
8101;BME280;4093;53.470;9.832;2023-04-07T11:37:46;101887.94;;;14.28;39.16
8101;BME280;4093;53.470;9.832;2023-04-07T11:40:30;101887.00;;;13.65;38.91
8101;BME280;4093;53.470;9.832;2023-04-07T11:42:58;101899.03;;;13.76;38.36
8101;BME280;4093;53.470;9.832;2023-04-07T11:45:26;101879.75;;;13.13;39.00
8101;BME280;4093;53.470;9.832;2023-04-07T11:47:55;101894.28;;;13.36;39.72
8101;BME280;4093;53.470;9.832;2023-04-07T11:50:39;101889.22;;;14.60;40.57
8101;BME280;4093;53.470;9.832;2023-04-07T11:53:08;101889.75;;;14.21;40.09
8101;BME280;4093;53.470;9.832;2023-04-07T11:55:36;101892.94;;;13.77;39.96
8101;BME280;4093;53.470;9.832;2023-04-07T11:58:06;101888.09;;;13.46;39.72
8101;BME280;4093;53.470;9.832;2023-04-07T12:00:35;101905.72;;;13.12;39.92
8101;BME280;4093;53.470;9.832;2023-04-07T12:03:11;101910.28;;;13.76;40.32
8101;BME280;4093;53.470;9.832;2023-04-07T12:05:43;101899.50;;;13.33;39.89
8101;BME280;4093;53.470;9.832;2023-04-07T12:08:12;101889.78;;;13.50;39.78
8101;BME280;4093;53.470;9.832;2023-04-07T12:10:41;101877.09;;;13.19;40.25
8101;BME280;4093;53.470;9.832;2023-04-07T12:13:09;101904.91;;;13.92;40.09
8101;BME280;4093;53.470;9.832;2023-04-07T12:15:36;101904.25;;;14.39;39.64
8101;BME280;4093;53.470;9.832;2023-04-07T12:18:04;101908.13;;;14.10;39.77
8101;BME280;4093;53.470;9.832;2023-04-07T12:20:33;101892.47;;;14.72;38.69
8101;BME280;4093;53.470;9.832;2023-04-07T12:23:03;101903.41;;;13.71;38.89
8101;BME280;4093;53.470;9.832;2023-04-07T12:25:30;101900.69;;;14.46;39.08
8101;BME280;4093;53.470;9.832;2023-04-07T12:27:58;101903.09;;;14.62;37.99
8101;BME280;4093;53.470;9.832;2023-04-07T12:30:26;101895.44;;;13.84;38.57
8101;BME280;4093;53.470;9.832;2023-04-07T12:32:54;101906.13;;;13.61;40.02
8101;BME280;4093;53.470;9.832;2023-04-07T12:35:22;101900.56;;;13.92;39.54
8101;BME280;4093;53.470;9.832;2023-04-07T12:37:51;101917.84;;;13.96;41.30
8101;BME280;4093;53.470;9.832;2023-04-07T12:40:19;101906.19;;;13.55;41.06
8101;BME280;4093;53.470;9.832;2023-04-07T12:42:46;101892.44;;;13.44;41.60
8101;BME280;4093;53.470;9.832;2023-04-07T12:45:14;101912.31;;;13.50;41.58
8101;BME280;4093;53.470;9.832;2023-04-07T12:47:43;101900.56;;;14.54;40.34
8101;BME280;4093;53.470;9.832;2023-04-07T12:50:11;101919.69;;;15.09;39.08
8101;BME280;4093;53.470;9.832;2023-04-07T12:52:38;101863.19;;;13.22;40.39
8101;BME280;4093;53.470;9.832;2023-04-07T12:55:07;101904.56;;;14.18;39.35
8101;BME280;4093;53.470;9.832;2023-04-07T12:57:35;101900.63;;;13.86;40.41
8101;BME280;4093;53.470;9.832;2023-04-07T13:00:05;101907.13;;;14.21;38.60
8101;BME280;4093;53.470;9.832;2023-04-07T13:02:33;101909.72;;;14.81;38.07
8101;BME280;4093;53.470;9.832;2023-04-07T13:05:02;101907.97;;;14.23;38.39
8101;BME280;4093;53.470;9.832;2023-04-07T13:07:30;101905.16;;;13.69;39.90
8101;BME280;4093;53.470;9.832;2023-04-07T13:10:00;101910.84;;;14.65;39.07
8101;BME280;4093;53.470;9.832;2023-04-07T13:12:29;101902.78;;;14.80;39.71
8101;BME280;4093;53.470;9.832;2023-04-07T13:14:57;101897.72;;;14.71;39.31
8101;BME280;4093;53.470;9.832;2023-04-07T13:17:26;101904.50;;;13.50;39.77
8101;BME280;4093;53.470;9.832;2023-04-07T13:19:54;101906.91;;;13.70;39.45
8101;BME280;4093;53.470;9.832;2023-04-07T13:22:22;101915.88;;;14.14;39.22
8101;BME280;4093;53.470;9.832;2023-04-07T13:24:50;101900.91;;;13.60;40.14
8101;BME280;4093;53.470;9.832;2023-04-07T13:27:18;101910.09;;;13.90;40.12